createdAt,value
2022-11-05T00:00:31.517Z,9.02
2022-11-05T00:03:28.171Z,9.01
2022-11-05T00:06:15.610Z,9.01
2022-11-05T00:09:02.163Z,9.02
2022-11-05T00:11:49.582Z,9.02
2022-11-05T00:14:36.708Z,9.01
2022-11-05T00:17:05.281Z,9.02
2022-11-05T00:19:33.785Z,9.02
2022-11-05T00:22:20.737Z,9.03
2022-11-05T00:25:08.879Z,9.03
2022-11-05T00:27:37.385Z,9.02
2022-11-05T00:30:09.143Z,9.02
2022-11-05T00:32:38.063Z,9.02
2022-11-05T00:35:10.551Z,9.01
2022-11-05T00:37:39.380Z,9.01
2022-11-05T00:40:11.181Z,9.01
2022-11-05T00:43:01.115Z,9.01
2022-11-05T00:45:30.988Z,9.00
2022-11-05T00:48:18.184Z,9.00
2022-11-05T00:50:47.104Z,9.00
2022-11-05T00:53:16.098Z,8.99
2022-11-05T00:55:45.467Z,9.01
2022-11-05T00:58:15.983Z,9.01
2022-11-05T01:00:48.613Z,9.00
2022-11-05T01:03:19.205Z,8.99
2022-11-05T01:05:49.299Z,8.99
2022-11-05T01:08:20.145Z,8.97
2022-11-05T01:10:52.263Z,8.97
2022-11-05T01:13:22.175Z,8.96
2022-11-05T01:15:52.332Z,8.96
2022-11-05T01:18:22.026Z,8.95
2022-11-05T01:20:51.459Z,8.93
2022-11-05T01:23:20.854Z,8.93
2022-11-05T01:25:49.909Z,8.91
2022-11-05T01:28:18.508Z,8.91
2022-11-05T01:30:47.400Z,8.89
2022-11-05T01:33:15.909Z,8.86
2022-11-05T01:35:44.962Z,8.85
2022-11-05T01:38:13.862Z,8.84
2022-11-05T01:40:44.060Z,8.82
2022-11-05T01:43:15.996Z,8.81
2022-11-05T01:45:46.068Z,8.79
2022-11-05T01:48:17.173Z,8.76
2022-11-05T01:50:49.816Z,8.74
2022-11-05T01:53:23.180Z,8.72
2022-11-05T01:55:57.589Z,8.70
2022-11-05T01:58:31.011Z,8.68
2022-11-05T02:00:59.899Z,8.66
2022-11-05T02:03:29.500Z,8.64
2022-11-05T02:05:59.468Z,8.63
2022-11-05T02:08:43.719Z,8.61
2022-11-05T02:11:17.566Z,8.59
2022-11-05T02:13:46.838Z,8.58
2022-11-05T02:16:24.788Z,8.57
2022-11-05T02:18:59.382Z,8.57
2022-11-05T02:21:45.755Z,8.55
2022-11-05T02:24:30.813Z,8.55
2022-11-05T02:27:12.742Z,8.54
2022-11-05T02:30:09.477Z,8.54
2022-11-05T02:33:10.275Z,8.53
2022-11-05T02:35:52.312Z,8.53
2022-11-05T02:38:30.752Z,8.53
2022-11-05T02:41:06.627Z,8.52
2022-11-05T02:43:59.471Z,8.51
2022-11-05T02:46:37.166Z,8.50
2022-11-05T02:49:11.947Z,8.50
2022-11-05T02:51:46.780Z,8.51
2022-11-05T02:54:17.797Z,8.50
2022-11-05T02:56:49.324Z,8.49
2022-11-05T02:59:17.701Z,8.46
2022-11-05T03:01:47.571Z,8.44
2022-11-05T03:04:17.888Z,8.42
2022-11-05T03:07:00.477Z,8.41
2022-11-05T03:09:43.731Z,8.40
2022-11-05T03:12:21.504Z,8.39
2022-11-05T03:14:56.400Z,8.37
2022-11-05T03:17:37.154Z,8.36
2022-11-05T03:20:14.937Z,8.35
2022-11-05T03:22:49.716Z,8.34
2022-11-05T03:25:22.005Z,8.34
2022-11-05T03:27:54.632Z,8.32
2022-11-05T03:30:24.873Z,8.31
2022-11-05T03:32:59.070Z,8.28
2022-11-05T03:35:30.434Z,8.27
2022-11-05T03:38:02.600Z,8.25
2022-11-05T03:40:33.387Z,8.23
2022-11-05T03:43:05.714Z,8.22
2022-11-05T03:45:37.575Z,8.21
2022-11-05T03:48:07.827Z,8.19
2022-11-05T03:50:41.483Z,8.18
2022-11-05T03:53:15.714Z,8.17
2022-11-05T03:55:47.354Z,8.15
2022-11-05T03:58:16.297Z,8.13
2022-11-05T04:00:45.078Z,8.13
2022-11-05T04:03:14.901Z,8.12
2022-11-05T04:05:43.940Z,8.12
2022-11-05T04:08:30.636Z,8.11
2022-11-05T04:11:17.354Z,8.10
2022-11-05T04:13:46.419Z,8.10
2022-11-05T04:16:33.295Z,8.10
2022-11-05T04:19:01.836Z,8.11
2022-11-05T04:21:48.897Z,8.11
2022-11-05T04:24:17.304Z,8.12
2022-11-05T04:26:46.918Z,8.12
2022-11-05T04:29:33.411Z,8.11
2022-11-05T04:32:02.401Z,8.11
2022-11-05T04:34:30.866Z,8.10
2022-11-05T04:36:59.309Z,8.09
2022-11-05T04:39:28.093Z,8.08
2022-11-05T04:41:56.604Z,8.07
2022-11-05T04:44:24.986Z,8.06
2022-11-05T04:46:53.523Z,8.05
2022-11-05T04:49:21.972Z,8.05
2022-11-05T04:51:50.598Z,8.04
2022-11-05T04:54:19.293Z,8.04
2022-11-05T04:56:47.702Z,8.03
2022-11-05T04:59:16.160Z,8.02
2022-11-05T05:01:44.596Z,8.02
2022-11-05T05:04:13.977Z,8.01
2022-11-05T05:06:42.595Z,8.00
2022-11-05T05:09:12.542Z,7.99
2022-11-05T05:11:41.032Z,7.98
2022-11-05T05:14:10.345Z,7.95
2022-11-05T05:16:39.129Z,7.91
2022-11-05T05:19:07.489Z,7.91
2022-11-05T05:21:39.030Z,7.88
2022-11-05T05:24:09.818Z,7.86
2022-11-05T05:26:39.942Z,7.84
2022-11-05T05:29:09.411Z,7.82
2022-11-05T05:31:38.248Z,7.78
2022-11-05T05:34:08.261Z,7.75
2022-11-05T05:36:38.373Z,7.73
2022-11-05T05:39:07.206Z,7.69
2022-11-05T05:41:35.746Z,7.66
2022-11-05T05:44:06.188Z,7.63
2022-11-05T05:46:34.677Z,7.61
2022-11-05T05:49:06.668Z,7.58
2022-11-05T05:51:40.114Z,7.53
2022-11-05T05:54:09.910Z,7.49
2022-11-05T05:56:38.336Z,7.46
2022-11-05T05:59:07.577Z,7.43
2022-11-05T06:01:36.802Z,7.41
2022-11-05T06:04:05.719Z,7.38
2022-11-05T06:06:34.326Z,7.37
2022-11-05T06:09:05.366Z,7.36
2022-11-05T06:11:33.849Z,7.35
2022-11-05T06:14:02.761Z,7.36
2022-11-05T06:16:35.318Z,7.36
2022-11-05T06:19:04.721Z,7.37
2022-11-05T06:21:33.232Z,7.37
2022-11-05T06:24:02.727Z,7.38
2022-11-05T06:26:32.035Z,7.38
2022-11-05T06:29:00.569Z,7.40
2022-11-05T06:31:30.023Z,7.42
2022-11-05T06:33:59.001Z,7.44
2022-11-05T06:36:27.506Z,7.45
2022-11-05T06:38:56.280Z,7.46
2022-11-05T06:41:24.725Z,7.47
2022-11-05T06:43:53.235Z,7.48
2022-11-05T06:46:21.650Z,7.49
2022-11-05T06:48:50.977Z,7.50
2022-11-05T06:51:19.480Z,7.51
2022-11-05T06:53:48.409Z,7.53
2022-11-05T06:56:17.090Z,7.54
2022-11-05T06:58:45.506Z,7.54
2022-11-05T07:01:14.025Z,7.56
2022-11-05T07:03:44.193Z,7.58
2022-11-05T07:06:12.575Z,7.60
2022-11-05T07:08:41.039Z,7.61
2022-11-05T07:11:09.481Z,7.63
2022-11-05T07:13:37.903Z,7.65
2022-11-05T07:16:08.345Z,7.67
2022-11-05T07:18:37.263Z,7.68
2022-11-05T07:21:06.281Z,7.68
2022-11-05T07:23:34.703Z,7.69
2022-11-05T07:26:03.425Z,7.71
2022-11-05T07:28:31.901Z,7.72
2022-11-05T07:31:00.560Z,7.74
2022-11-05T07:33:35.273Z,7.75
2022-11-05T07:36:05.928Z,7.75
2022-11-05T07:38:37.819Z,7.76
2022-11-05T07:41:06.822Z,7.75
2022-11-05T07:43:38.155Z,7.76
2022-11-05T07:46:11.147Z,7.76
2022-11-05T07:48:42.399Z,7.77
2022-11-05T07:51:11.049Z,7.77
2022-11-05T07:53:44.914Z,7.78
2022-11-05T07:56:14.589Z,7.79
2022-11-05T07:58:43.198Z,7.81
2022-11-05T08:01:11.716Z,7.82
2022-11-05T08:03:40.259Z,7.83
2022-11-05T08:06:09.029Z,7.84
2022-11-05T08:08:37.519Z,7.85
2022-11-05T08:11:07.311Z,7.86
2022-11-05T08:13:36.245Z,7.88
2022-11-05T08:16:06.220Z,7.90
2022-11-05T08:18:35.562Z,7.90
2022-11-05T08:21:05.422Z,7.91
2022-11-05T08:23:34.111Z,7.93
2022-11-05T08:26:04.009Z,7.95
2022-11-05T08:28:33.120Z,7.96
2022-11-05T08:31:01.703Z,7.97
2022-11-05T08:33:31.099Z,7.99
2022-11-05T08:36:03.510Z,8.01
2022-11-05T08:38:32.902Z,8.03
2022-11-05T08:41:01.921Z,8.05
2022-11-05T08:43:30.666Z,8.07
2022-11-05T08:46:01.938Z,8.08
2022-11-05T08:48:30.411Z,8.10
2022-11-05T08:51:01.480Z,8.13
2022-11-05T08:53:31.356Z,8.15
2022-11-05T08:56:00.184Z,8.17
2022-11-05T08:58:28.801Z,8.19
2022-11-05T09:01:03.509Z,8.20
2022-11-05T09:03:33.512Z,8.21
2022-11-05T09:06:02.236Z,8.24
2022-11-05T09:08:30.834Z,8.25
2022-11-05T09:10:59.734Z,8.28
2022-11-05T09:13:28.348Z,8.30
2022-11-05T09:15:59.147Z,8.33
2022-11-05T09:18:28.913Z,8.35
2022-11-05T09:20:57.471Z,8.38
2022-11-05T09:23:26.444Z,8.41
2022-11-05T09:25:55.227Z,8.44
2022-11-05T09:28:24.965Z,8.48
2022-11-05T09:30:54.065Z,8.51
2022-11-05T09:33:24.481Z,8.54
2022-11-05T09:35:53.658Z,8.58
2022-11-05T09:38:23.091Z,8.61
2022-11-05T09:40:57.550Z,8.64
2022-11-05T09:43:32.073Z,8.66
2022-11-05T09:46:03.855Z,8.67
2022-11-05T09:48:34.189Z,8.69
2022-11-05T09:51:05.407Z,8.71
2022-11-05T09:53:37.761Z,8.73
2022-11-05T09:56:10.931Z,8.76
2022-11-05T09:58:42.993Z,8.77
2022-11-05T10:01:15.982Z,8.78
2022-11-05T10:03:49.971Z,8.80
2022-11-05T10:06:20.853Z,8.81
2022-11-05T10:08:52.844Z,8.82
2022-11-05T10:11:25.066Z,8.83
2022-11-05T10:13:58.814Z,8.85
2022-11-05T10:16:30.764Z,8.86
2022-11-05T10:19:02.535Z,8.87
2022-11-05T10:21:59.522Z,8.88
2022-11-05T10:24:21.422Z,8.90
2022-11-05T10:26:51.922Z,8.90
2022-11-05T10:29:25.093Z,8.91
2022-11-05T10:31:54.602Z,8.92
2022-11-05T10:34:28.598Z,8.92
2022-11-05T10:36:56.458Z,8.95
2022-11-05T10:39:27.111Z,8.95
2022-11-05T10:42:20.143Z,8.97
2022-11-05T10:44:56.381Z,8.99
2022-11-05T10:47:39.638Z,9.03
2022-11-05T10:50:11.869Z,9.06
2022-11-05T10:52:45.928Z,9.08
2022-11-05T10:55:19.107Z,9.10
2022-11-05T10:57:48.821Z,9.11
2022-11-05T11:00:25.234Z,9.13
2022-11-05T11:02:55.773Z,9.15
2022-11-05T11:05:27.250Z,9.17
2022-11-05T11:08:00.247Z,9.18
2022-11-05T11:10:33.706Z,9.19
2022-11-05T11:13:03.109Z,9.19
2022-11-05T11:15:32.618Z,9.20
2022-11-05T11:18:23.237Z,9.21
2022-11-05T11:20:52.046Z,9.21
2022-11-05T11:23:21.107Z,9.20
2022-11-05T11:25:54.096Z,9.20
2022-11-05T11:28:29.024Z,9.21
2022-11-05T11:31:04.982Z,9.22
2022-11-05T11:33:35.242Z,9.22
2022-11-05T11:36:04.266Z,9.23
2022-11-05T11:38:35.173Z,9.23
2022-11-05T11:41:16.195Z,9.22
2022-11-05T11:43:45.659Z,9.22
2022-11-05T11:46:16.710Z,9.20
2022-11-05T11:48:47.801Z,9.19
2022-11-05T11:51:30.729Z,9.18
2022-11-05T11:54:05.449Z,9.18
2022-11-05T11:56:45.768Z,9.15
2022-11-05T11:59:40.463Z,9.14
2022-11-05T12:02:30.111Z,9.12
2022-11-05T12:05:22.424Z,9.09
2022-11-05T12:07:57.398Z,9.06
2022-11-05T12:10:51.817Z,9.05
2022-11-05T12:13:54.588Z,9.05
2022-11-05T12:16:30.715Z,9.04
2022-11-05T12:19:12.705Z,9.02
2022-11-05T12:21:53.334Z,9.02
2022-11-05T12:24:45.039Z,9.02
2022-11-05T12:27:27.601Z,9.01
2022-11-05T12:30:10.318Z,8.99
2022-11-05T12:32:49.463Z,8.97
2022-11-05T12:35:34.764Z,8.97
2022-11-05T12:38:14.041Z,8.97
2022-11-05T12:41:06.100Z,8.95
2022-11-05T12:43:46.371Z,8.94
2022-11-05T12:46:25.318Z,8.92
2022-11-05T12:49:31.071Z,8.90
2022-11-05T12:52:17.652Z,8.90
2022-11-05T12:54:58.405Z,8.89
2022-11-05T12:57:28.003Z,8.87
2022-11-05T13:00:06.845Z,8.86
2022-11-05T13:02:42.481Z,8.86
2022-11-05T13:05:15.859Z,8.86
2022-11-05T13:07:49.951Z,8.85
2022-11-05T13:10:25.593Z,8.83
2022-11-05T13:13:00.469Z,8.82
2022-11-05T13:15:32.796Z,8.81
2022-11-05T13:18:04.848Z,8.80
2022-11-05T13:20:36.290Z,8.79
2022-11-05T13:23:17.974Z,8.78
2022-11-05T13:25:52.175Z,8.76
2022-11-05T13:28:32.714Z,8.73
2022-11-05T13:31:03.577Z,8.72
2022-11-05T13:33:34.843Z,8.73
2022-11-05T13:36:24.854Z,8.74
2022-11-05T13:38:59.448Z,8.74
2022-11-05T13:41:36.112Z,8.74
2022-11-05T13:44:18.792Z,8.74
2022-11-05T13:47:15.621Z,8.73
2022-11-05T13:50:17.852Z,8.71
2022-11-05T13:52:57.804Z,8.67
2022-11-05T13:55:41.871Z,8.65
2022-11-05T13:58:23.276Z,8.64
2022-11-05T14:01:01.273Z,8.63
2022-11-05T14:03:30.378Z,8.63
2022-11-05T14:06:03.490Z,8.62
2022-11-05T14:08:36.400Z,8.61
2022-11-05T14:11:07.319Z,8.59
2022-11-05T14:13:37.962Z,8.59
2022-11-05T14:16:08.763Z,8.58
2022-11-05T14:18:43.270Z,8.58
2022-11-05T14:21:48.313Z,8.57
2022-11-05T14:24:23.698Z,8.57
2022-11-05T14:27:24.076Z,8.55
2022-11-05T14:29:53.291Z,8.54
2022-11-05T14:32:27.539Z,8.54
2022-11-05T14:35:03.283Z,8.53
2022-11-05T14:37:33.785Z,8.53
2022-11-05T14:40:25.179Z,8.52
2022-11-05T14:42:56.114Z,8.53
2022-11-05T14:45:28.903Z,8.53
2022-11-05T14:47:59.657Z,8.52
2022-11-05T14:50:35.887Z,8.52
2022-11-05T14:53:11.741Z,8.52
2022-11-05T14:55:42.385Z,8.51
2022-11-05T14:58:29.750Z,8.51
2022-11-05T15:00:59.414Z,8.49
2022-11-05T15:04:10.696Z,8.49
2022-11-05T15:06:39.221Z,8.46
2022-11-05T15:09:31.742Z,8.45
2022-11-05T15:12:13.645Z,8.45
2022-11-05T15:14:55.092Z,8.44
2022-11-05T15:17:29.322Z,8.44
2022-11-05T15:20:07.869Z,8.43
2022-11-05T15:22:41.716Z,8.43
2022-11-05T15:25:17.827Z,8.43
2022-11-05T15:28:04.889Z,8.42
2022-11-05T15:30:33.658Z,8.42
2022-11-05T15:33:18.160Z,8.41
2022-11-05T15:35:47.136Z,8.40
2022-11-05T15:38:30.316Z,8.39
2022-11-05T15:41:00.754Z,8.38
2022-11-05T15:43:29.818Z,8.37
2022-11-05T15:46:03.485Z,8.36
2022-11-05T15:48:32.314Z,8.36
2022-11-05T15:51:01.291Z,8.34
2022-11-05T15:54:16.160Z,8.33
2022-11-05T15:56:48.549Z,8.32
2022-11-05T15:59:19.006Z,8.30
2022-11-05T16:01:48.994Z,8.28
2022-11-05T16:04:19.874Z,8.26
2022-11-05T16:06:55.643Z,8.25
2022-11-05T16:09:26.170Z,8.22
2022-11-05T16:12:12.354Z,8.20
2022-11-05T16:14:41.521Z,8.18
2022-11-05T16:17:21.335Z,8.16
2022-11-05T16:19:50.894Z,8.16
2022-11-05T16:22:19.666Z,8.15
2022-11-05T16:24:50.510Z,8.14
2022-11-05T16:27:20.953Z,8.14
2022-11-05T16:29:52.138Z,8.13
2022-11-05T16:32:28.586Z,8.13
2022-11-05T16:35:00.322Z,8.13
2022-11-05T16:37:31.526Z,8.14
2022-11-05T16:40:01.278Z,8.14
2022-11-05T16:42:42.268Z,8.14
2022-11-05T16:45:14.211Z,8.14
2022-11-05T16:47:44.706Z,8.15
2022-11-05T16:50:19.782Z,8.15
2022-11-05T16:52:48.700Z,8.16
2022-11-05T16:55:18.486Z,8.16
2022-11-05T16:57:51.090Z,8.17
2022-11-05T17:00:21.646Z,8.18
2022-11-05T17:02:50.543Z,8.18
2022-11-05T17:05:22.317Z,8.18
2022-11-05T17:07:51.377Z,8.19
2022-11-05T17:10:20.818Z,8.19
2022-11-05T17:12:49.953Z,8.20
2022-11-05T17:15:21.433Z,8.20
2022-11-05T17:17:50.945Z,8.21
2022-11-05T17:20:38.316Z,8.22
2022-11-05T17:23:10.520Z,8.23
2022-11-05T17:25:39.819Z,8.23
2022-11-05T17:28:10.166Z,8.24
2022-11-05T17:30:41.650Z,8.25
2022-11-05T17:33:11.510Z,8.25
2022-11-05T17:35:41.810Z,8.25
2022-11-05T17:38:10.708Z,8.26
2022-11-05T17:40:39.622Z,8.27
2022-11-05T17:43:08.853Z,8.28
2022-11-05T17:45:42.722Z,8.29
2022-11-05T17:48:14.578Z,8.31
2022-11-05T17:50:43.887Z,8.31
2022-11-05T17:53:14.913Z,8.32
2022-11-05T17:55:44.680Z,8.33
2022-11-05T17:58:13.444Z,8.34
2022-11-05T18:00:43.576Z,8.33
2022-11-05T18:03:13.078Z,8.33
2022-11-05T18:05:42.574Z,8.34
2022-11-05T18:08:12.969Z,8.35
2022-11-05T18:10:42.109Z,8.35
2022-11-05T18:13:11.072Z,8.38
2022-11-05T18:15:40.716Z,8.40
2022-11-05T18:18:09.670Z,8.42
2022-11-05T18:20:38.552Z,8.45
2022-11-05T18:23:07.128Z,8.50
2022-11-05T18:25:35.888Z,8.53
2022-11-05T18:28:04.640Z,8.56
2022-11-05T18:30:33.651Z,8.60
2022-11-05T18:33:02.352Z,8.64
2022-11-05T18:35:31.433Z,8.68
2022-11-05T18:37:59.980Z,8.72
2022-11-05T18:40:28.863Z,8.77
2022-11-05T18:42:57.362Z,8.82
2022-11-05T18:45:29.709Z,8.85
2022-11-05T18:47:59.864Z,8.89
2022-11-05T18:50:28.789Z,8.90
2022-11-05T18:52:57.632Z,8.92
2022-11-05T18:55:26.205Z,8.93
2022-11-05T18:57:54.680Z,8.94
2022-11-05T19:00:23.385Z,8.94
2022-11-05T19:02:52.445Z,8.93
2022-11-05T19:05:30.013Z,8.94
2022-11-05T19:07:59.324Z,8.94
2022-11-05T19:10:29.212Z,8.96
2022-11-05T19:12:57.739Z,8.96
2022-11-05T19:15:26.731Z,8.96
2022-11-05T19:17:55.399Z,8.96
2022-11-05T19:20:23.974Z,8.96
2022-11-05T19:22:52.870Z,8.94
2022-11-05T19:25:21.352Z,8.92
2022-11-05T19:27:49.925Z,8.91
2022-11-05T19:30:18.627Z,8.91
2022-11-05T19:32:47.210Z,8.91
2022-11-05T19:35:15.734Z,8.91
2022-11-05T19:37:44.561Z,8.90
2022-11-05T19:40:13.463Z,8.89
2022-11-05T19:42:42.609Z,8.90
2022-11-05T19:45:38.193Z,8.89
2022-11-05T19:48:00.797Z,8.88
2022-11-05T19:50:29.770Z,8.87
2022-11-05T19:52:58.243Z,8.85
2022-11-05T19:55:26.756Z,8.85
2022-11-05T19:57:55.673Z,8.84
2022-11-05T20:00:24.526Z,8.84
2022-11-05T20:02:53.241Z,8.83
2022-11-05T20:05:22.043Z,8.81
2022-11-05T20:07:52.979Z,8.82
2022-11-05T20:10:22.538Z,8.80
2022-11-05T20:12:51.258Z,8.79
2022-11-05T20:15:20.387Z,8.79
2022-11-05T20:17:54.378Z,8.79
2022-11-05T20:20:22.085Z,8.79
2022-11-05T20:22:52.930Z,8.79
2022-11-05T20:25:21.484Z,8.77
2022-11-05T20:27:49.925Z,8.77
2022-11-05T20:30:19.420Z,8.77
2022-11-05T20:32:48.951Z,8.75
2022-11-05T20:35:18.495Z,8.75
2022-11-05T20:37:51.210Z,8.76
2022-11-05T20:40:33.137Z,8.76
2022-11-05T20:43:02.358Z,8.76
2022-11-05T20:45:30.836Z,8.76
2022-11-05T20:47:59.503Z,8.78
2022-11-05T20:50:28.278Z,8.79
2022-11-05T20:52:56.914Z,8.80
2022-11-05T20:55:27.966Z,8.81
2022-11-05T20:57:57.005Z,8.81
2022-11-05T21:00:25.636Z,8.82
2022-11-05T21:02:54.351Z,8.83
2022-11-05T21:05:23.294Z,8.82
2022-11-05T21:07:51.895Z,8.83
2022-11-05T21:10:20.587Z,8.84
2022-11-05T21:12:49.369Z,8.85
2022-11-05T21:15:20.489Z,8.86
2022-11-05T21:17:48.998Z,8.86
2022-11-05T21:20:18.803Z,8.87
2022-11-05T21:22:48.046Z,8.87
2022-11-05T21:25:17.064Z,8.87
2022-11-05T21:27:46.184Z,8.88
2022-11-05T21:30:15.060Z,8.88
2022-11-05T21:32:43.830Z,8.88
2022-11-05T21:35:12.469Z,8.88
2022-11-05T21:37:40.933Z,8.88
2022-11-05T21:40:11.862Z,8.89
2022-11-05T21:42:40.504Z,8.90
2022-11-05T21:45:10.231Z,8.90
2022-11-05T21:47:38.704Z,8.89
2022-11-05T21:50:08.909Z,8.89
2022-11-05T21:52:56.502Z,8.89
2022-11-05T21:55:43.789Z,8.88
2022-11-05T21:58:33.341Z,8.89
2022-11-05T22:01:02.723Z,8.89
2022-11-05T22:03:31.345Z,8.90
2022-11-05T22:06:00.114Z,8.91
2022-11-05T22:08:28.790Z,8.92
2022-11-05T22:10:57.206Z,8.92
2022-11-05T22:13:25.759Z,8.93
2022-11-05T22:15:57.496Z,8.93
2022-11-05T22:18:26.061Z,8.94
2022-11-05T22:20:55.261Z,8.94
2022-11-05T22:23:25.532Z,8.95
2022-11-05T22:26:00.609Z,8.95
2022-11-05T22:28:29.115Z,8.93
2022-11-05T22:31:00.256Z,8.93
2022-11-05T22:33:28.752Z,8.93
2022-11-05T22:35:57.313Z,8.93
2022-11-05T22:38:32.695Z,8.93
2022-11-05T22:41:08.086Z,8.93
2022-11-05T22:43:37.617Z,8.93
2022-11-05T22:46:08.886Z,8.93
2022-11-05T22:48:38.180Z,8.94
2022-11-05T22:51:09.294Z,8.94
2022-11-05T22:53:38.269Z,8.94
2022-11-05T22:56:08.899Z,8.93
2022-11-05T22:58:37.742Z,8.93
2022-11-05T23:01:07.865Z,8.93
2022-11-05T23:03:36.750Z,8.93
2022-11-05T23:06:27.425Z,8.92
2022-11-05T23:09:14.561Z,8.92
2022-11-05T23:11:45.748Z,8.93
2022-11-05T23:14:14.583Z,8.93
2022-11-05T23:17:01.932Z,8.92
2022-11-05T23:19:49.624Z,8.91
2022-11-05T23:22:38.337Z,8.89
2022-11-05T23:25:10.274Z,8.87
2022-11-05T23:27:40.638Z,8.85
2022-11-05T23:30:13.213Z,8.85
2022-11-05T23:32:41.680Z,8.83
2022-11-05T23:35:11.017Z,8.82
2022-11-05T23:37:57.942Z,8.79
2022-11-05T23:40:28.345Z,8.76
2022-11-05T23:43:16.024Z,8.74
2022-11-05T23:46:03.487Z,8.72
2022-11-05T23:48:33.947Z,8.70
2022-11-05T23:51:04.588Z,8.69
2022-11-05T23:53:35.910Z,8.67
2022-11-05T23:56:07.021Z,8.65
2022-11-05T23:58:36.255Z,8.64
